Terminal Aerodrome Forecast
Issued by NWS

Home | Current Version | Previous Version | Text Only | Print | Product List | Glossary On
Versions: 1 2 3 4 5 6 7 8 9 10 11 12 13 14 15 16 17 18
000
FTUS43 KJKL 232320
TAFSME
TAF
KSME 232320Z 2400/2424 00000KT P6SM SCT090
     FM240700 17004KT P6SM SCT250 WS020/19035KT
     FM241400 18010G18KT P6SM FEW035 SCT140
     FM241900 20015G25KT P6SM FEW035 SCT090
     FM242300 19011KT P6SM SCT035 BKN070=

USA.gov is the U.S. government's official web portal to all federal, state and local government web resources and services.